sensor_id;sensor_type;location;lat;lon;timestamp;temperature;humidity
72646;DHT22;60687;53.876;10.674;2023-06-26T00:04:06;21.90;71.80
72646;DHT22;60687;53.876;10.674;2023-06-26T00:14:09;21.80;72.90
72646;DHT22;60687;53.876;10.674;2023-06-26T00:24:12;21.70;74.10
72646;DHT22;60687;53.876;10.674;2023-06-26T00:34:16;21.60;76.30
72646;DHT22;60687;53.876;10.674;2023-06-26T00:44:21;21.60;75.50
72646;DHT22;60687;53.876;10.674;2023-06-26T00:54:25;21.50;75.00
72646;DHT22;60687;53.876;10.674;2023-06-26T01:04:28;21.40;77.10
72646;DHT22;60687;53.876;10.674;2023-06-26T01:14:35;21.40;77.20
72646;DHT22;60687;53.876;10.674;2023-06-26T01:24:39;21.30;77.60
72646;DHT22;60687;53.876;10.674;2023-06-26T01:34:45;21.30;78.10
72646;DHT22;60687;53.876;10.674;2023-06-26T01:44:48;21.20;78.90
72646;DHT22;60687;53.876;10.674;2023-06-26T01:55:11;21.20;79.70
72646;DHT22;60687;53.876;10.674;2023-06-26T02:05:14;21.20;81.50
72646;DHT22;60687;53.876;10.674;2023-06-26T02:15:18;21.10;80.80
72646;DHT22;60687;53.876;10.674;2023-06-26T02:25:21;21.10;81.20
72646;DHT22;60687;53.876;10.674;2023-06-26T02:35:24;21.00;82.30
72646;DHT22;60687;53.876;10.674;2023-06-26T02:45:27;21.00;82.20
72646;DHT22;60687;53.876;10.674;2023-06-26T02:55:31;20.90;82.60
72646;DHT22;60687;53.876;10.674;2023-06-26T03:05:33;20.90;83.30
72646;DHT22;60687;53.876;10.674;2023-06-26T03:15:39;20.80;83.50
72646;DHT22;60687;53.876;10.674;2023-06-26T03:25:42;20.80;82.50
72646;DHT22;60687;53.876;10.674;2023-06-26T03:36:02;20.80;83.20
72646;DHT22;60687;53.876;10.674;2023-06-26T03:46:04;20.80;84.30
72646;DHT22;60687;53.876;10.674;2023-06-26T03:56:08;20.70;84.90
72646;DHT22;60687;53.876;10.674;2023-06-26T04:06:11;20.70;84.70
72646;DHT22;60687;53.876;10.674;2023-06-26T04:16:15;20.70;84.50
72646;DHT22;60687;53.876;10.674;2023-06-26T04:26:17;20.70;84.50
72646;DHT22;60687;53.876;10.674;2023-06-26T04:36:21;20.80;85.20
72646;DHT22;60687;53.876;10.674;2023-06-26T04:46:24;20.90;85.70
72646;DHT22;60687;53.876;10.674;2023-06-26T04:56:30;21.00;84.60
72646;DHT22;60687;53.876;10.674;2023-06-26T05:06:33;21.10;86.00
72646;DHT22;60687;53.876;10.674;2023-06-26T05:16:36;21.20;84.90
72646;DHT22;60687;53.876;10.674;2023-06-26T05:26:39;21.40;84.20
72646;DHT22;60687;53.876;10.674;2023-06-26T05:36:44;21.60;84.00
72646;DHT22;60687;53.876;10.674;2023-06-26T05:46:47;21.80;83.00
72646;DHT22;60687;53.876;10.674;2023-06-26T05:56:52;22.10;81.60
72646;DHT22;60687;53.876;10.674;2023-06-26T06:06:58;22.30;80.70
72646;DHT22;60687;53.876;10.674;2023-06-26T06:17:02;22.60;78.90
72646;DHT22;60687;53.876;10.674;2023-06-26T06:27:04;22.90;77.20
72646;DHT22;60687;53.876;10.674;2023-06-26T06:37:08;23.20;75.60
72646;DHT22;60687;53.876;10.674;2023-06-26T06:47:11;23.50;74.00
72646;DHT22;60687;53.876;10.674;2023-06-26T06:57:15;23.90;73.60
72646;DHT22;60687;53.876;10.674;2023-06-26T07:07:18;24.20;71.80
72646;DHT22;60687;53.876;10.674;2023-06-26T07:17:23;24.70;71.40
72646;DHT22;60687;53.876;10.674;2023-06-26T07:27:26;25.00;69.10
72646;DHT22;60687;53.876;10.674;2023-06-26T07:37:30;25.40;69.00
72646;DHT22;60687;53.876;10.674;2023-06-26T07:47:33;25.70;67.00
72646;DHT22;60687;53.876;10.674;2023-06-26T07:57:38;26.00;66.10
72646;DHT22;60687;53.876;10.674;2023-06-26T08:07:40;26.30;64.50
72646;DHT22;60687;53.876;10.674;2023-06-26T08:17:44;26.60;62.60
72646;DHT22;60687;53.876;10.674;2023-06-26T08:27:47;26.80;60.60
72646;DHT22;60687;53.876;10.674;2023-06-26T08:37:51;27.10;59.50
72646;DHT22;60687;53.876;10.674;2023-06-26T08:47:57;27.30;56.30
72646;DHT22;60687;53.876;10.674;2023-06-26T08:58:03;27.50;55.00
72646;DHT22;60687;53.876;10.674;2023-06-26T09:08:07;27.70;55.20
72646;DHT22;60687;53.876;10.674;2023-06-26T09:18:11;28.00;54.80
72646;DHT22;60687;53.876;10.674;2023-06-26T09:28:14;28.40;54.00
72646;DHT22;60687;53.876;10.674;2023-06-26T09:38:18;28.60;51.30
72646;DHT22;60687;53.876;10.674;2023-06-26T09:48:22;28.80;50.80
72646;DHT22;60687;53.876;10.674;2023-06-26T09:58:27;28.70;48.90
72646;DHT22;60687;53.876;10.674;2023-06-26T10:08:30;28.50;48.50
72646;DHT22;60687;53.876;10.674;2023-06-26T10:18:36;28.60;50.20
72646;DHT22;60687;53.876;10.674;2023-06-26T10:28:41;28.50;49.20
72646;DHT22;60687;53.876;10.674;2023-06-26T10:38:51;27.90;52.80
72646;DHT22;60687;53.876;10.674;2023-06-26T10:48:58;27.40;53.90
72646;DHT22;60687;53.876;10.674;2023-06-26T10:59:14;27.00;55.60
72646;DHT22;60687;53.876;10.674;2023-06-26T11:09:18;26.30;56.50
72646;DHT22;60687;53.876;10.674;2023-06-26T11:19:27;25.70;60.80
72646;DHT22;60687;53.876;10.674;2023-06-26T11:29:31;25.20;65.00
72646;DHT22;60687;53.876;10.674;2023-06-26T11:39:35;24.70;69.80
72646;DHT22;60687;53.876;10.674;2023-06-26T11:49:42;24.30;75.60
72646;DHT22;60687;53.876;10.674;2023-06-26T11:59:49;23.90;80.30
72646;DHT22;60687;53.876;10.674;2023-06-26T12:09:52;23.50;82.80
72646;DHT22;60687;53.876;10.674;2023-06-26T12:19:57;23.10;86.10
72646;DHT22;60687;53.876;10.674;2023-06-26T12:30:04;23.10;88.40
72646;DHT22;60687;53.876;10.674;2023-06-26T12:40:18;23.40;86.90
72646;DHT22;60687;53.876;10.674;2023-06-26T12:50:23;23.40;73.00
72646;DHT22;60687;53.876;10.674;2023-06-26T13:00:27;23.60;73.20
72646;DHT22;60687;53.876;10.674;2023-06-26T13:10:29;23.70;65.00
72646;DHT22;60687;53.876;10.674;2023-06-26T13:20:34;23.90;63.90
72646;DHT22;60687;53.876;10.674;2023-06-26T13:30:38;23.80;59.00
72646;DHT22;60687;53.876;10.674;2023-06-26T13:40:43;23.80;57.90
72646;DHT22;60687;53.876;10.674;2023-06-26T13:50:46;23.80;54.60
72646;DHT22;60687;53.876;10.674;2023-06-26T14:00:50;23.60;55.20
72646;DHT22;60687;53.876;10.674;2023-06-26T14:10:53;23.40;54.40
72646;DHT22;60687;53.876;10.674;2023-06-26T14:20:58;23.20;51.50
72646;DHT22;60687;53.876;10.674;2023-06-26T14:31:00;23.20;50.40
72646;DHT22;60687;53.876;10.674;2023-06-26T14:41:04;23.10;49.60
72646;DHT22;60687;53.876;10.674;2023-06-26T14:51:08;23.10;48.60
72646;DHT22;60687;53.876;10.674;2023-06-26T15:01:11;23.10;45.60
72646;DHT22;60687;53.876;10.674;2023-06-26T15:11:16;23.10;47.40
72646;DHT22;60687;53.876;10.674;2023-06-26T15:21:19;23.00;46.30
72646;DHT22;60687;53.876;10.674;2023-06-26T15:31:22;22.90;49.00
72646;DHT22;60687;53.876;10.674;2023-06-26T15:41:26;22.70;47.20
72646;DHT22;60687;53.876;10.674;2023-06-26T15:51:32;22.50;48.70
72646;DHT22;60687;53.876;10.674;2023-06-26T16:01:39;22.50;51.30
72646;DHT22;60687;53.876;10.674;2023-06-26T16:11:42;22.30;51.20
72646;DHT22;60687;53.876;10.674;2023-06-26T16:21:46;22.30;50.70
72646;DHT22;60687;53.876;10.674;2023-06-26T16:31:49;22.20;50.90
72646;DHT22;60687;53.876;10.674;2023-06-26T16:41:53;22.10;51.00
72646;DHT22;60687;53.876;10.674;2023-06-26T16:51:56;21.90;52.40
72646;DHT22;60687;53.876;10.674;2023-06-26T17:02:00;21.90;54.10
72646;DHT22;60687;53.876;10.674;2023-06-26T17:12:03;21.70;56.00
72646;DHT22;60687;53.876;10.674;2023-06-26T17:22:07;21.70;57.00
72646;DHT22;60687;53.876;10.674;2023-06-26T17:32:10;21.50;58.30
72646;DHT22;60687;53.876;10.674;2023-06-26T17:42:14;21.40;59.10
72646;DHT22;60687;53.876;10.674;2023-06-26T17:52:17;21.30;59.50
72646;DHT22;60687;53.876;10.674;2023-06-26T18:02:21;21.30;60.60
72646;DHT22;60687;53.876;10.674;2023-06-26T18:12:23;21.10;61.80
72646;DHT22;60687;53.876;10.674;2023-06-26T18:22:27;20.90;59.60
72646;DHT22;60687;53.876;10.674;2023-06-26T18:32:29;20.90;60.20
72646;DHT22;60687;53.876;10.674;2023-06-26T18:42:33;20.80;61.00
72646;DHT22;60687;53.876;10.674;2023-06-26T18:52:35;20.70;61.90
72646;DHT22;60687;53.876;10.674;2023-06-26T19:02:39;20.50;59.00
72646;DHT22;60687;53.876;10.674;2023-06-26T19:12:42;20.40;57.10
72646;DHT22;60687;53.876;10.674;2023-06-26T19:22:46;20.20;56.10
72646;DHT22;60687;53.876;10.674;2023-06-26T19:32:49;20.00;57.30
72646;DHT22;60687;53.876;10.674;2023-06-26T19:42:53;19.80;57.80
72646;DHT22;60687;53.876;10.674;2023-06-26T19:52:56;19.60;59.00
72646;DHT22;60687;53.876;10.674;2023-06-26T20:03:00;19.60;60.10
72646;DHT22;60687;53.876;10.674;2023-06-26T20:13:02;19.40;62.10
72646;DHT22;60687;53.876;10.674;2023-06-26T20:23:07;19.30;62.10
72646;DHT22;60687;53.876;10.674;2023-06-26T20:33:09;19.20;62.70
72646;DHT22;60687;53.876;10.674;2023-06-26T20:43:14;19.10;63.40
72646;DHT22;60687;53.876;10.674;2023-06-26T20:53:19;19.00;64.50
72646;DHT22;60687;53.876;10.674;2023-06-26T21:03:23;18.90;66.60
72646;DHT22;60687;53.876;10.674;2023-06-26T21:13:25;18.80;67.40
72646;DHT22;60687;53.876;10.674;2023-06-26T21:23:30;18.70;68.10
72646;DHT22;60687;53.876;10.674;2023-06-26T21:33:32;18.60;69.20
72646;DHT22;60687;53.876;10.674;2023-06-26T21:43:36;18.50;70.60
72646;DHT22;60687;53.876;10.674;2023-06-26T22:03:42;18.40;71.50
72646;DHT22;60687;53.876;10.674;2023-06-26T22:13:46;18.30;73.80
72646;DHT22;60687;53.876;10.674;2023-06-26T22:23:50;18.10;75.90
72646;DHT22;60687;53.876;10.674;2023-06-26T22:33:52;18.10;75.50
72646;DHT22;60687;53.876;10.674;2023-06-26T22:43:56;17.90;76.50
72646;DHT22;60687;53.876;10.674;2023-06-26T22:53:59;17.80;78.70
72646;DHT22;60687;53.876;10.674;2023-06-26T23:04:03;17.70;79.80
72646;DHT22;60687;53.876;10.674;2023-06-26T23:14:07;17.60;80.40
72646;DHT22;60687;53.876;10.674;2023-06-26T23:24:11;17.50;81.10
72646;DHT22;60687;53.876;10.674;2023-06-26T23:34:14;17.60;81.60
72646;DHT22;60687;53.876;10.674;2023-06-26T23:44:20;17.40;82.10
72646;DHT22;60687;53.876;10.674;2023-06-26T23:54:23;17.40;83.70
